Archival Weather

Chicago O'Hare International

Chicago, Illinois (KORD)

Report from: Wednesday, February 16, 2022 10:37 PM CST
Current time: Saturday, February 4, 2023 10:33 PM CST

Current weather
Weather history
Weather forecast

Present weatherHeavy rain, mist
Temperature9.4°C (48.9°F)
Wind chill7.5°C (45.4°F)
Dew point7.8°C (46.0°F)
Winds 7 kts (3.6 m/s, 8.1 mph) North (350°)
Visibility3 mi. (4.8 km)
Clouds Ceiling: Broken clouds 500 ft. (152 m)
Broken clouds 1,300 ft. (396 m)
Overcast 1,900 ft. (579 m)
Altimeter29.77 in.Hg (1008 mB)
Precipitiation0.20 in. (5 mm)
Relative humidity90 %
Density altitude-345 ft. (-105 m)
Remarks Automated weather observing station with precipitation discriminator
Flight conditions Instrument Meteorological Conditions
Raw dataKORD 170437Z 35007KT 3SM R10L/4000VP6000FT +RA BR BKN005 BKN013 OVC019 09/08 A2977 RMK AO2 P0020 T00940078
An unhandled exception has occurred. See browser dev tools for details. Reload 🗙